Aeroporto :
LOGIN :

Iscrizione | Disclaimer

   EN    FR    IT 

 










Sommario :    VFR   VFR Marginale   IFR   IFR Intensivo   IFR Molto Intensivo
Visibilità : 
Base nubi : 
>= 8 km
>= 3000ft
5 / 8 km
1000 / 3000 ft
1500m / 5 km
500 / 1000 ft
800 / 1500m
200 / 500 ft
< 800m
< 200 ft
Simboli :   Temporali  Nebbia  Neve Forte  Precipitazioni Forti  Vento > 20 kt
SIGMETs :   Varie  Temporali  Ghiacco  Turbolenza  Onda orograficha  Ceneri Vulcaniche






- Altitudine del aeroporto : 270 ft
- Codice IATA : OXF


EGTK - Oxford (Kidlington)

ULTIMO METAR :
  • 231320Z 36009KT 320V040 9999 -SHRA SCT021 SCT029 BKN048 10/05 Q1022

METARs OBSOLETI :
  • 231250Z 01014KT 9999 -SHRA FEW020 SCT024 BKN028 09/05 Q1023
  • 231220Z 35012KT 9999 VCSH FEW016 SCT029 SCT035 09/04 Q1023
  • 231150Z 36011KT 9999 FEW030 BKN042 10/04 Q1023
  • 231120Z 01013KT 340V040 9999 SCT025 SCT033 BKN043 09/03 Q1023
  • 231050Z 36012KT 320V020 9999 SCT030 SCT037 09/03 Q1023
  • 231020Z 35012KT 320V030 9999 SCT032 SCT040 09/03 Q1023
  • 230950Z 35009KT 320V020 9999 BKN036 09/03 Q1023
  • 230920Z 01009KT 330V040 9999 BKN025 09/03 Q1023
  • 230850Z 35010KT 320V030 9999 FEW019 SCT042 08/03 Q1024

TAF TAF EGTK
Valido dal 23 a 12 ore il 23 a 21 ore UTC


231059Z 2312/2321 35009KT 9999 FEW020 SCT035



MetMap, La meteo Aeronautica in un colpo d'occhio ! - Copyright ORBIFLY Dicembre 2007 - Disclaimer

ORBIFLY MET'MAP TEAM :

Programmazione e sviluppo : Alexandra Zaïnal
Concezione : Baudouin d'Aumeries
Supporto tecnico e logistico : Manuel Goepfert
Aiuto : Marc-Olivier Méhu
Aiuto per la traduzione : Arnaldo La Scala




FONTI E CREDITI :

   NOAA